sensor_id;sensor_type;location;lat;lon;timestamp;pressure;altitude;pressure_sealevel;temperature;humidity
64343;BME280;50675;53.530;-6.312;2024-02-04T15:21:11;101342.81;;;15.04;71.47
64343;BME280;50675;53.530;-6.312;2024-02-04T15:23:37;101322.84;;;15.25;71.51
64343;BME280;50675;53.530;-6.312;2024-02-04T15:26:03;101339.59;;;15.12;71.50
64343;BME280;50675;53.530;-6.312;2024-02-04T15:28:33;101340.53;;;15.27;71.34
64343;BME280;50675;53.530;-6.312;2024-02-04T15:31:07;101337.38;;;15.04;71.22
64343;BME280;50675;53.530;-6.312;2024-02-04T15:33:39;101341.69;;;15.00;71.41
64343;BME280;50675;53.530;-6.312;2024-02-04T15:36:05;101332.00;;;15.14;71.48
64343;BME280;50675;53.530;-6.312;2024-02-04T15:38:33;101343.47;;;15.21;71.47
64343;BME280;50675;53.530;-6.312;2024-02-04T15:41:00;101348.88;;;15.11;71.09
64343;BME280;50675;53.530;-6.312;2024-02-04T15:43:28;101342.97;;;14.92;71.32
64343;BME280;50675;53.530;-6.312;2024-02-04T15:45:57;101345.56;;;15.09;71.30
64343;BME280;50675;53.530;-6.312;2024-02-04T15:48:28;101347.97;;;15.00;71.50
64343;BME280;50675;53.530;-6.312;2024-02-04T15:50:56;101350.16;;;15.03;71.29
64343;BME280;50675;53.530;-6.312;2024-02-04T15:53:22;101354.47;;;14.99;71.33
64343;BME280;50675;53.530;-6.312;2024-02-04T15:55:51;101369.50;;;15.07;71.26
64343;BME280;50675;53.530;-6.312;2024-02-04T15:58:17;101354.94;;;15.23;71.04
64343;BME280;50675;53.530;-6.312;2024-02-04T16:00:43;101360.91;;;15.20;71.31
64343;BME280;50675;53.530;-6.312;2024-02-04T16:03:09;101357.03;;;15.16;71.27
64343;BME280;50675;53.530;-6.312;2024-02-04T16:05:39;101355.97;;;15.17;71.31
64343;BME280;50675;53.530;-6.312;2024-02-04T16:08:05;101373.06;;;15.12;71.28
64343;BME280;50675;53.530;-6.312;2024-02-04T16:10:31;101357.03;;;15.11;71.49
64343;BME280;50675;53.530;-6.312;2024-02-04T16:13:10;101364.16;;;15.22;71.37
64343;BME280;50675;53.530;-6.312;2024-02-04T16:15:38;101363.63;;;15.20;71.41
64343;BME280;50675;53.530;-6.312;2024-02-04T16:18:07;101357.81;;;15.11;71.29
64343;BME280;50675;53.530;-6.312;2024-02-04T16:20:40;101374.88;;;15.02;71.34
64343;BME280;50675;53.530;-6.312;2024-02-04T16:23:06;101369.72;;;15.00;71.38
64343;BME280;50675;53.530;-6.312;2024-02-04T16:25:32;101344.09;;;14.91;71.34
64343;BME280;50675;53.530;-6.312;2024-02-04T16:28:00;101363.22;;;15.01;71.49
64343;BME280;50675;53.530;-6.312;2024-02-04T16:30:26;101357.72;;;14.96;71.37
64343;BME280;50675;53.530;-6.312;2024-02-04T16:32:51;101350.72;;;15.05;71.34
64343;BME280;50675;53.530;-6.312;2024-02-04T16:35:17;101358.59;;;15.07;71.64
64343;BME280;50675;53.530;-6.312;2024-02-04T16:37:46;101341.09;;;14.93;71.46
64343;BME280;50675;53.530;-6.312;2024-02-04T16:40:12;101340.06;;;14.99;71.31
64343;BME280;50675;53.530;-6.312;2024-02-04T16:42:38;101337.09;;;15.00;71.44
64343;BME280;50675;53.530;-6.312;2024-02-04T16:45:04;101351.50;;;15.01;71.40
64343;BME280;50675;53.530;-6.312;2024-02-04T16:47:31;101347.34;;;14.93;71.32
64343;BME280;50675;53.530;-6.312;2024-02-04T16:49:57;101368.03;;;14.94;71.38
64343;BME280;50675;53.530;-6.312;2024-02-04T16:52:25;101365.22;;;14.84;71.34
64343;BME280;50675;53.530;-6.312;2024-02-04T16:54:51;101346.91;;;14.74;71.55
64343;BME280;50675;53.530;-6.312;2024-02-04T16:57:17;101351.16;;;14.92;71.46
64343;BME280;50675;53.530;-6.312;2024-02-04T16:59:44;101364.00;;;14.97;71.50
64343;BME280;50675;53.530;-6.312;2024-02-04T17:02:13;101357.94;;;14.89;71.39
64343;BME280;50675;53.530;-6.312;2024-02-04T17:04:40;101342.81;;;15.04;71.36
64343;BME280;50675;53.530;-6.312;2024-02-04T17:07:09;101353.13;;;15.02;71.40
64343;BME280;50675;53.530;-6.312;2024-02-04T17:09:36;101345.41;;;14.88;71.35
64343;BME280;50675;53.530;-6.312;2024-02-04T17:12:03;101350.84;;;14.88;71.38
64343;BME280;50675;53.530;-6.312;2024-02-04T17:14:29;101318.22;;;14.88;71.36
64343;BME280;50675;53.530;-6.312;2024-02-04T17:17:14;101351.94;;;14.87;71.43
64343;BME280;50675;53.530;-6.312;2024-02-04T17:19:48;101351.28;;;14.75;71.20
64343;BME280;50675;53.530;-6.312;2024-02-04T17:22:17;101337.81;;;14.91;71.42
64343;BME280;50675;53.530;-6.312;2024-02-04T17:24:48;101343.03;;;14.65;71.27
64343;BME280;50675;53.530;-6.312;2024-02-04T17:27:19;101342.59;;;14.78;71.40
64343;BME280;50675;53.530;-6.312;2024-02-04T17:29:52;101341.03;;;14.56;71.20
64343;BME280;50675;53.530;-6.312;2024-02-04T17:32:26;101337.44;;;14.77;71.25
64343;BME280;50675;53.530;-6.312;2024-02-04T17:34:55;101342.56;;;14.73;71.49
64343;BME280;50675;53.530;-6.312;2024-02-04T17:37:23;101361.72;;;14.88;71.30
64343;BME280;50675;53.530;-6.312;2024-02-04T17:39:49;101346.00;;;14.64;71.32
64343;BME280;50675;53.530;-6.312;2024-02-04T17:42:15;101349.69;;;14.79;71.37
64343;BME280;50675;53.530;-6.312;2024-02-04T17:44:43;101356.88;;;14.91;71.33
64343;BME280;50675;53.530;-6.312;2024-02-04T17:47:09;101350.50;;;14.80;71.18
64343;BME280;50675;53.530;-6.312;2024-02-04T17:49:35;101340.94;;;14.72;71.22
64343;BME280;50675;53.530;-6.312;2024-02-04T17:52:07;101359.16;;;14.45;71.20
64343;BME280;50675;53.530;-6.312;2024-02-04T17:54:32;101369.69;;;14.68;71.35
64343;BME280;50675;53.530;-6.312;2024-02-04T17:57:00;101362.38;;;14.69;71.19
64343;BME280;50675;53.530;-6.312;2024-02-04T17:59:26;101355.56;;;14.66;71.49
64343;BME280;50675;53.530;-6.312;2024-02-04T18:04:45;101351.63;;;14.52;71.34
64343;BME280;50675;53.530;-6.312;2024-02-04T18:07:13;101363.56;;;14.51;71.21
64343;BME280;50675;53.530;-6.312;2024-02-04T18:09:39;101364.78;;;14.65;71.38
64343;BME280;50675;53.530;-6.312;2024-02-04T18:12:08;101370.06;;;14.50;71.28
64343;BME280;50675;53.530;-6.312;2024-02-04T18:14:34;101368.19;;;14.77;71.23
64343;BME280;50675;53.530;-6.312;2024-02-04T18:17:03;101360.31;;;14.49;71.29
64343;BME280;50675;53.530;-6.312;2024-02-04T18:19:34;101373.38;;;14.52;71.45
64343;BME280;50675;53.530;-6.312;2024-02-04T18:22:00;101368.03;;;14.62;71.32
64343;BME280;50675;53.530;-6.312;2024-02-04T18:24:26;101390.81;;;14.56;71.46
64343;BME280;50675;53.530;-6.312;2024-02-04T18:26:52;101374.72;;;14.28;71.36
64343;BME280;50675;53.530;-6.312;2024-02-04T18:29:24;101378.84;;;14.09;71.22
64343;BME280;50675;53.530;-6.312;2024-02-04T18:31:54;101388.25;;;13.79;71.00
64343;BME280;50675;53.530;-6.312;2024-02-04T18:34:20;101392.53;;;13.97;71.29
64343;BME280;50675;53.530;-6.312;2024-02-04T18:36:46;101385.22;;;13.97;71.17
64343;BME280;50675;53.530;-6.312;2024-02-04T18:39:13;101391.53;;;13.81;71.41
64343;BME280;50675;53.530;-6.312;2024-02-04T18:41:41;101377.56;;;13.73;71.36
64343;BME280;50675;53.530;-6.312;2024-02-04T18:44:12;101389.50;;;13.93;71.52
64343;BME280;50675;53.530;-6.312;2024-02-04T18:46:41;101387.09;;;13.75;71.56
64343;BME280;50675;53.530;-6.312;2024-02-04T18:49:11;101371.88;;;13.74;71.56
64343;BME280;50675;53.530;-6.312;2024-02-04T18:51:41;101385.53;;;13.79;71.53
64343;BME280;50675;53.530;-6.312;2024-02-04T18:54:11;101392.59;;;13.80;71.66
64343;BME280;50675;53.530;-6.312;2024-02-04T18:56:44;101390.41;;;13.77;71.77
64343;BME280;50675;53.530;-6.312;2024-02-04T18:59:10;101403.31;;;13.70;71.86
64343;BME280;50675;53.530;-6.312;2024-02-04T19:01:36;101387.09;;;13.53;71.79
64343;BME280;50675;53.530;-6.312;2024-02-04T19:04:05;101390.03;;;13.52;71.90
64343;BME280;50675;53.530;-6.312;2024-02-04T19:06:31;101399.53;;;13.71;71.95
64343;BME280;50675;53.530;-6.312;2024-02-04T19:08:57;101392.00;;;13.56;71.83
64343;BME280;50675;53.530;-6.312;2024-02-04T19:11:24;101392.59;;;13.58;71.91
64343;BME280;50675;53.530;-6.312;2024-02-04T19:13:50;101393.03;;;13.72;72.00
